createdAt,value
2022-12-29T00:01:09.971Z,2.45
2022-12-29T00:03:38.029Z,2.67
2022-12-29T00:06:06.200Z,2.83
2022-12-29T00:08:41.648Z,2.67
2022-12-29T00:11:09.896Z,2.63
2022-12-29T00:13:52.123Z,2.92
2022-12-29T00:16:20.087Z,2.58
2022-12-29T00:18:48.130Z,2.72
2022-12-29T00:21:34.005Z,2.75
2022-12-29T00:24:23.125Z,2.42
2022-12-29T00:27:12.620Z,2.55
2022-12-29T00:29:58.293Z,2.42
2022-12-29T00:32:43.838Z,2.63
2022-12-29T00:35:13.854Z,2.60
2022-12-29T00:38:08.871Z,2.58
2022-12-29T00:40:55.651Z,2.92
2022-12-29T00:43:41.284Z,2.78
2022-12-29T00:46:12.871Z,2.58
2022-12-29T00:49:01.471Z,2.20
2022-12-29T00:51:29.347Z,2.50
2022-12-29T00:53:57.283Z,2.30
2022-12-29T00:56:26.548Z,2.03
2022-12-29T00:58:54.450Z,2.10
2022-12-29T01:01:22.406Z,2.15
2022-12-29T01:03:50.404Z,2.15
2022-12-29T01:06:18.290Z,1.65
2022-12-29T01:08:46.307Z,1.73
2022-12-29T01:11:14.142Z,1.63
2022-12-29T01:13:44.747Z,1.75
2022-12-29T01:16:12.831Z,1.90
2022-12-29T01:18:40.745Z,1.88
2022-12-29T01:21:08.913Z,1.40
2022-12-29T01:23:36.844Z,1.92
2022-12-29T01:26:11.194Z,1.40
2022-12-29T01:28:39.926Z,1.08
2022-12-29T01:31:09.683Z,1.35
2022-12-29T01:33:38.089Z,1.42
2022-12-29T01:36:08.271Z,1.27
2022-12-29T01:38:37.849Z,1.20
2022-12-29T01:41:06.721Z,1.30
2022-12-29T01:43:42.949Z,1.20
2022-12-29T01:46:20.819Z,1.45
2022-12-29T01:48:50.916Z,1.17
2022-12-29T01:51:19.296Z,1.52
2022-12-29T01:53:47.886Z,1.02
2022-12-29T01:56:18.920Z,1.25
2022-12-29T01:58:50.054Z,1.73
2022-12-29T02:01:21.738Z,1.27
2022-12-29T02:03:51.106Z,1.30
2022-12-29T02:06:23.967Z,1.58
2022-12-29T02:08:54.266Z,1.45
2022-12-29T02:11:23.701Z,1.48
2022-12-29T02:13:51.598Z,1.50
2022-12-29T02:16:36.255Z,1.65
2022-12-29T02:19:28.753Z,1.75
2022-12-29T02:22:09.857Z,1.52
2022-12-29T02:25:12.722Z,1.27
2022-12-29T02:27:55.888Z,1.65
2022-12-29T02:30:42.508Z,1.70
2022-12-29T02:33:23.847Z,1.10
2022-12-29T02:35:59.498Z,1.17
2022-12-29T02:38:40.498Z,0.80
2022-12-29T02:41:16.308Z,0.93
2022-12-29T02:43:52.851Z,0.95
2022-12-29T02:46:30.174Z,0.85
2022-12-29T02:49:08.252Z,0.80
2022-12-29T02:51:41.814Z,1.27
2022-12-29T02:54:27.733Z,0.90
2022-12-29T02:56:55.586Z,1.00
2022-12-29T02:59:24.935Z,1.00
2022-12-29T03:02:19.301Z,1.10
2022-12-29T03:05:08.794Z,0.98
2022-12-29T03:07:45.575Z,1.05
2022-12-29T03:10:27.161Z,1.60
2022-12-29T03:13:25.133Z,1.05
2022-12-29T03:16:03.360Z,1.60
2022-12-29T03:18:46.206Z,1.00
2022-12-29T03:21:18.589Z,1.20
2022-12-29T03:23:49.745Z,1.02
2022-12-29T03:26:20.357Z,1.27
2022-12-29T03:28:52.592Z,1.10
2022-12-29T03:31:22.521Z,0.68
2022-12-29T03:33:53.675Z,0.75
2022-12-29T03:36:29.417Z,1.20
2022-12-29T03:39:03.678Z,1.27
2022-12-29T03:41:35.038Z,0.90
2022-12-29T03:44:02.979Z,1.10
2022-12-29T03:46:31.093Z,1.00
2022-12-29T03:49:00.557Z,1.80
2022-12-29T03:51:28.473Z,0.85
2022-12-29T03:53:56.468Z,1.23
2022-12-29T03:56:24.434Z,1.27
2022-12-29T03:58:52.335Z,1.08
2022-12-29T04:01:20.235Z,1.05
2022-12-29T04:03:48.464Z,1.40
2022-12-29T04:06:17.788Z,1.30
2022-12-29T04:08:45.676Z,1.30
2022-12-29T04:11:13.650Z,1.30
2022-12-29T04:13:42.482Z,1.50
2022-12-29T04:16:10.502Z,1.30
2022-12-29T04:18:38.546Z,1.40
2022-12-29T04:21:06.760Z,1.30
2022-12-29T04:23:38.984Z,1.13
2022-12-29T04:26:08.608Z,1.42
2022-12-29T04:28:36.732Z,1.23
2022-12-29T04:31:05.049Z,1.10
2022-12-29T04:33:33.161Z,1.30
2022-12-29T04:36:01.073Z,1.27
2022-12-29T04:38:29.333Z,1.38
2022-12-29T04:41:01.977Z,1.38
2022-12-29T04:43:30.396Z,1.23
2022-12-29T04:45:58.769Z,0.90
2022-12-29T04:48:26.760Z,1.65
2022-12-29T04:50:54.632Z,1.08
2022-12-29T04:53:22.762Z,1.25
2022-12-29T04:55:51.507Z,1.38
2022-12-29T04:58:23.035Z,1.13
2022-12-29T05:00:51.886Z,1.52
2022-12-29T05:03:19.937Z,1.85
2022-12-29T05:05:48.142Z,1.25
2022-12-29T05:08:16.072Z,1.27
2022-12-29T05:10:47.478Z,1.58
2022-12-29T05:13:15.509Z,1.60
2022-12-29T05:15:49.798Z,1.42
2022-12-29T05:18:17.968Z,1.40
2022-12-29T05:20:46.525Z,1.20
2022-12-29T05:23:14.812Z,1.42
2022-12-29T05:25:42.852Z,1.00
2022-12-29T05:28:10.776Z,1.10
2022-12-29T05:30:38.701Z,1.10
2022-12-29T05:33:08.159Z,1.80
2022-12-29T05:35:36.071Z,1.65
2022-12-29T05:38:03.949Z,1.17
2022-12-29T05:40:32.020Z,1.52
2022-12-29T05:43:00.751Z,1.10
2022-12-29T05:45:28.788Z,1.17
2022-12-29T05:47:56.689Z,1.75
2022-12-29T05:50:25.990Z,1.50
2022-12-29T05:52:54.031Z,1.15
2022-12-29T05:55:22.302Z,1.70
2022-12-29T05:57:50.163Z,1.70
2022-12-29T06:00:18.557Z,1.17
2022-12-29T06:02:46.741Z,1.50
2022-12-29T06:05:14.940Z,1.00
2022-12-29T06:07:45.730Z,1.65
2022-12-29T06:10:13.841Z,1.40
2022-12-29T06:12:41.766Z,1.85
2022-12-29T06:15:10.558Z,1.58
2022-12-29T06:17:38.499Z,1.67
2022-12-29T06:20:07.331Z,1.60
2022-12-29T06:22:35.381Z,1.55
2022-12-29T06:25:06.421Z,1.42
2022-12-29T06:27:34.541Z,1.75
2022-12-29T06:30:02.492Z,1.85
2022-12-29T06:32:30.571Z,1.65
2022-12-29T06:34:58.436Z,1.52
2022-12-29T06:37:26.402Z,1.75
2022-12-29T06:39:54.425Z,1.20
2022-12-29T06:42:23.649Z,1.42
2022-12-29T06:44:51.649Z,2.00
2022-12-29T06:47:19.780Z,1.60
2022-12-29T06:49:47.688Z,1.80
2022-12-29T06:52:15.598Z,1.83
2022-12-29T06:54:43.449Z,1.70
2022-12-29T06:57:11.385Z,1.55
2022-12-29T06:59:40.595Z,2.08
2022-12-29T07:02:08.773Z,1.95
2022-12-29T07:04:36.784Z,1.60
2022-12-29T07:07:05.054Z,1.92
2022-12-29T07:09:32.967Z,1.50
2022-12-29T07:12:01.480Z,1.50
2022-12-29T07:14:29.523Z,1.20
2022-12-29T07:16:58.871Z,1.95
2022-12-29T07:19:26.868Z,1.30
2022-12-29T07:21:56.572Z,1.23
2022-12-29T07:24:26.577Z,1.67
2022-12-29T07:26:54.616Z,1.95
2022-12-29T07:29:22.788Z,1.70
2022-12-29T07:31:50.709Z,1.35
2022-12-29T07:34:20.043Z,1.90
2022-12-29T07:36:47.993Z,2.20
2022-12-29T07:39:15.949Z,1.63
2022-12-29T07:41:43.888Z,2.35
2022-12-29T07:44:11.969Z,1.73
2022-12-29T07:46:55.599Z,2.55
2022-12-29T07:49:26.709Z,1.88
2022-12-29T07:51:54.599Z,1.90
2022-12-29T07:54:24.073Z,1.88
2022-12-29T07:56:52.526Z,2.03
2022-12-29T07:59:20.680Z,2.00
2022-12-29T08:01:48.854Z,3.30
2022-12-29T08:04:17.192Z,2.72
2022-12-29T08:06:47.371Z,3.10
2022-12-29T08:09:21.891Z,1.75
2022-12-29T08:11:50.745Z,2.08
2022-12-29T08:14:19.292Z,2.00
2022-12-29T08:16:47.281Z,2.63
2022-12-29T08:19:15.620Z,3.13
2022-12-29T08:21:43.531Z,2.80
2022-12-29T08:24:13.017Z,2.28
2022-12-29T08:26:41.101Z,1.90
2022-12-29T08:29:08.957Z,2.42
2022-12-29T08:31:37.168Z,1.85
2022-12-29T08:34:05.291Z,1.73
2022-12-29T08:36:33.250Z,2.22
2022-12-29T08:39:01.472Z,2.00
2022-12-29T08:41:30.765Z,2.10
2022-12-29T08:43:58.737Z,1.75
2022-12-29T08:46:26.938Z,1.98
2022-12-29T08:48:55.692Z,1.70
2022-12-29T08:51:25.117Z,2.03
2022-12-29T08:53:53.679Z,1.90
2022-12-29T08:56:21.784Z,1.75
2022-12-29T08:58:51.055Z,1.35
2022-12-29T09:01:19.091Z,1.70
2022-12-29T09:06:40.177Z,2.05
2022-12-29T09:09:08.911Z,1.92
2022-12-29T09:11:36.892Z,1.85
2022-12-29T09:14:06.375Z,2.22
2022-12-29T09:16:34.639Z,2.20
2022-12-29T09:19:02.710Z,1.70
2022-12-29T09:21:30.765Z,1.80
2022-12-29T09:23:58.819Z,1.80
2022-12-29T09:26:26.860Z,2.03
2022-12-29T09:28:54.907Z,1.75
2022-12-29T09:31:24.298Z,1.90
2022-12-29T09:33:52.269Z,2.05
2022-12-29T09:36:20.232Z,2.25
2022-12-29T09:38:48.160Z,2.25
2022-12-29T09:41:24.426Z,2.20
2022-12-29T09:44:08.732Z,2.35
2022-12-29T09:46:41.271Z,2.25
2022-12-29T09:49:18.396Z,1.98
2022-12-29T09:51:50.359Z,3.42
2022-12-29T09:54:30.384Z,1.98
2022-12-29T09:56:58.600Z,2.33
2022-12-29T09:59:33.814Z,3.10
2022-12-29T10:02:15.062Z,2.45
2022-12-29T10:04:45.248Z,1.92
2022-12-29T10:07:29.476Z,1.85
2022-12-29T10:10:12.290Z,1.70
2022-12-29T10:12:54.324Z,2.95
2022-12-29T10:15:42.615Z,7.85
2022-12-29T10:18:22.931Z,3.45
2022-12-29T10:20:56.085Z,4.85
2022-12-29T10:23:30.739Z,4.17
2022-12-29T10:26:00.893Z,2.50
2022-12-29T10:28:39.009Z,2.10
2022-12-29T10:31:11.180Z,2.00
2022-12-29T10:33:43.615Z,1.67
2022-12-29T10:36:18.480Z,2.08
2022-12-29T10:38:53.716Z,2.35
2022-12-29T10:41:25.923Z,1.80
2022-12-29T10:43:56.217Z,2.50
2022-12-29T10:46:27.556Z,2.55
2022-12-29T10:48:56.843Z,2.30
2022-12-29T10:51:27.587Z,2.20
2022-12-29T10:54:00.283Z,2.72
2022-12-29T10:56:34.970Z,2.28
2022-12-29T10:59:12.634Z,2.40
2022-12-29T11:01:52.271Z,2.10
2022-12-29T11:04:40.329Z,2.58
2022-12-29T11:07:15.008Z,3.15
2022-12-29T11:09:45.436Z,2.53
2022-12-29T11:12:25.707Z,3.08
2022-12-29T11:15:13.114Z,3.10
2022-12-29T11:17:47.258Z,2.40
2022-12-29T11:23:02.779Z,3.42
2022-12-29T11:25:30.911Z,3.92
2022-12-29T11:28:01.772Z,3.25
2022-12-29T11:30:32.392Z,3.63
2022-12-29T11:33:04.676Z,3.72
2022-12-29T11:35:36.729Z,3.08
2022-12-29T11:38:05.850Z,4.20
2022-12-29T11:40:39.654Z,3.15
2022-12-29T11:43:07.929Z,3.88
2022-12-29T11:45:38.225Z,4.03
2022-12-29T11:48:10.138Z,3.92
2022-12-29T11:50:42.230Z,4.47
2022-12-29T11:53:19.556Z,3.63
2022-12-29T11:55:54.893Z,4.93
2022-12-29T11:58:22.888Z,4.90
2022-12-29T12:00:52.174Z,3.75
2022-12-29T12:03:24.287Z,3.72
2022-12-29T12:05:58.439Z,4.15
2022-12-29T12:08:37.986Z,2.00
2022-12-29T12:11:12.281Z,2.47
2022-12-29T12:13:45.653Z,3.08
2022-12-29T12:16:17.824Z,3.03
2022-12-29T12:18:50.055Z,2.70
2022-12-29T12:21:41.783Z,3.00
2022-12-29T12:24:35.915Z,5.60
2022-12-29T12:27:09.621Z,3.47
2022-12-29T12:29:40.302Z,3.78
2022-12-29T12:32:17.547Z,3.80
2022-12-29T12:34:47.387Z,4.20
2022-12-29T12:37:42.536Z,3.90
2022-12-29T12:40:36.885Z,3.75
2022-12-29T12:43:26.310Z,4.03
2022-12-29T12:46:03.346Z,3.60
2022-12-29T12:48:55.789Z,3.67
2022-12-29T12:51:35.063Z,3.40
2022-12-29T12:54:15.933Z,3.28
2022-12-29T12:56:58.379Z,4.07
2022-12-29T12:59:38.224Z,3.33
2022-12-29T13:02:22.556Z,4.20
2022-12-29T13:05:24.328Z,3.63
2022-12-29T13:08:06.202Z,4.25
2022-12-29T13:10:47.056Z,14.98
2022-12-29T13:13:51.748Z,5.03
2022-12-29T13:16:31.054Z,4.05
2022-12-29T13:19:03.753Z,4.40
2022-12-29T13:21:54.593Z,3.42
2022-12-29T13:24:34.467Z,4.20
2022-12-29T13:27:11.269Z,4.00
2022-12-29T13:29:49.121Z,3.60
2022-12-29T13:32:28.918Z,3.97
2022-12-29T13:35:09.558Z,3.50
2022-12-29T13:37:50.176Z,3.70
2022-12-29T13:40:21.094Z,3.50
2022-12-29T13:42:51.134Z,2.63
2022-12-29T13:45:21.650Z,3.60
2022-12-29T13:47:53.237Z,2.80
2022-12-29T13:50:24.026Z,4.15
2022-12-29T13:53:01.348Z,3.85
2022-12-29T13:55:34.214Z,2.72
2022-12-29T13:58:16.918Z,3.42
2022-12-29T14:00:53.200Z,2.78
2022-12-29T14:03:49.022Z,2.60
2022-12-29T14:06:26.119Z,2.92
2022-12-29T14:08:56.898Z,2.63
2022-12-29T14:11:31.282Z,2.78
2022-12-29T15:18:24.782Z,1.75
2022-12-29T15:20:54.362Z,1.40
2022-12-29T15:24:52.171Z,1.45
2022-12-29T15:28:03.106Z,1.63
2022-12-29T15:40:34.840Z,2.55
2022-12-29T15:43:25.238Z,2.70
2022-12-29T15:45:53.943Z,3.40
2022-12-29T15:48:23.821Z,5.55
2022-12-29T15:50:52.100Z,3.28
2022-12-29T15:53:25.607Z,2.65
2022-12-29T15:55:58.403Z,2.88
2022-12-29T15:58:31.792Z,2.70
2022-12-29T16:01:01.303Z,2.65
2022-12-29T16:03:31.751Z,2.72
2022-12-29T16:06:09.761Z,2.03
2022-12-29T16:08:38.936Z,2.70
2022-12-29T16:11:18.039Z,2.92
2022-12-29T16:13:46.447Z,3.55
2022-12-29T16:16:17.784Z,3.20
2022-12-29T16:18:47.559Z,2.42
2022-12-29T16:21:19.724Z,2.55
2022-12-29T16:23:50.378Z,2.80
2022-12-29T16:26:20.981Z,2.88
2022-12-29T16:28:50.650Z,3.10
2022-12-29T16:31:22.395Z,2.70
2022-12-29T16:33:52.016Z,2.33
2022-12-29T16:36:41.172Z,2.38
2022-12-29T16:39:23.952Z,1.80
2022-12-29T16:41:53.329Z,2.30
2022-12-29T16:44:22.567Z,2.28
2022-12-29T16:47:05.114Z,2.10
2022-12-29T16:49:34.101Z,1.95
2022-12-29T16:52:02.057Z,1.90
2022-12-29T16:54:35.916Z,2.33
2022-12-29T16:57:05.371Z,2.35
2022-12-29T16:59:35.019Z,2.10
2022-12-29T17:02:09.196Z,2.42
2022-12-29T17:07:04.700Z,2.40
2022-12-29T17:09:32.735Z,2.38
2022-12-29T17:12:10.659Z,2.50
2022-12-29T17:14:43.655Z,1.75
2022-12-29T17:17:16.772Z,2.00
2022-12-29T17:19:47.149Z,2.10
2022-12-29T17:22:18.193Z,2.95
2022-12-29T17:24:46.047Z,2.95
2022-12-29T17:27:22.918Z,2.28
2022-12-29T17:29:52.701Z,4.50
2022-12-29T17:32:20.524Z,4.78
2022-12-29T17:34:48.825Z,4.20
2022-12-29T17:37:35.088Z,3.78
2022-12-29T17:40:03.536Z,4.40
2022-12-29T17:42:32.911Z,2.90
2022-12-29T17:45:02.957Z,3.92
2022-12-29T17:47:30.773Z,3.50
2022-12-29T17:49:58.567Z,2.60
2022-12-29T17:52:26.413Z,2.90
2022-12-29T17:54:55.182Z,3.20
2022-12-29T17:57:23.032Z,2.80
2022-12-29T17:59:51.177Z,2.55
2022-12-29T18:02:29.293Z,2.83
2022-12-29T18:04:57.775Z,2.05
2022-12-29T18:07:33.905Z,2.88
2022-12-29T18:10:04.342Z,2.35
2022-12-29T18:12:36.950Z,2.75
2022-12-29T18:15:05.660Z,3.00
2022-12-29T18:17:34.718Z,2.58
2022-12-29T18:20:02.448Z,3.10
2022-12-29T18:22:30.216Z,3.50
2022-12-29T18:24:57.952Z,2.78
2022-12-29T18:27:27.066Z,2.72
2022-12-29T18:29:54.782Z,3.20
2022-12-29T18:32:22.526Z,2.47
2022-12-29T18:34:51.726Z,2.53
2022-12-29T18:37:19.520Z,3.00
2022-12-29T18:39:47.191Z,3.08
2022-12-29T18:42:18.566Z,2.70
2022-12-29T18:44:46.569Z,2.53
2022-12-29T18:47:14.567Z,3.22
2022-12-29T18:49:42.464Z,3.13
2022-12-29T18:52:14.794Z,3.08
2022-12-29T18:54:42.572Z,2.72
2022-12-29T18:57:10.327Z,2.90
2022-12-29T18:59:38.189Z,3.20
2022-12-29T19:02:06.117Z,3.22
2022-12-29T19:04:33.912Z,3.10
2022-12-29T19:07:03.112Z,3.25
2022-12-29T19:09:32.274Z,2.95
2022-12-29T19:12:00.309Z,3.92
2022-12-29T19:14:28.191Z,3.42
2022-12-29T19:16:56.180Z,3.60
2022-12-29T19:19:24.248Z,3.92
2022-12-29T19:21:56.513Z,3.97
2022-12-29T19:24:24.331Z,3.78
2022-12-29T19:26:53.475Z,3.00
2022-12-29T19:29:21.253Z,3.58
2022-12-29T19:31:49.013Z,3.55
2022-12-29T19:34:17.658Z,3.20
2022-12-29T19:36:46.551Z,3.97
2022-12-29T19:39:14.768Z,3.92
2022-12-29T19:41:42.560Z,3.45
2022-12-29T19:44:11.734Z,3.78
2022-12-29T19:46:39.552Z,4.03
2022-12-29T19:49:07.514Z,3.45
2022-12-29T19:51:35.357Z,3.80
2022-12-29T19:54:03.116Z,3.65
2022-12-29T19:56:30.938Z,4.13
2022-12-29T19:58:58.940Z,3.50
2022-12-29T20:01:28.300Z,3.80
2022-12-29T20:03:56.877Z,3.72
2022-12-29T20:06:24.597Z,4.05
2022-12-29T20:08:52.418Z,4.50
2022-12-29T20:11:20.632Z,4.05
2022-12-29T20:13:48.738Z,4.38
2022-12-29T20:16:17.962Z,4.05
2022-12-29T20:18:47.888Z,4.10
2022-12-29T20:21:19.094Z,3.72
2022-12-29T20:23:47.861Z,4.45
2022-12-29T20:26:17.092Z,4.35
2022-12-29T20:28:45.249Z,4.90
2022-12-29T20:31:18.628Z,4.70
2022-12-29T20:33:48.367Z,3.85
2022-12-29T20:36:18.765Z,4.65
2022-12-29T20:38:47.979Z,4.30
2022-12-29T20:41:17.521Z,3.83
2022-12-29T20:43:45.850Z,4.20
2022-12-29T20:46:18.140Z,4.85
2022-12-29T20:48:49.674Z,5.07
2022-12-29T20:51:17.414Z,3.83
2022-12-29T20:53:45.174Z,4.38
2022-12-29T20:56:16.318Z,4.40
2022-12-29T20:59:17.215Z,4.75
2022-12-29T21:01:32.488Z,4.47
2022-12-29T21:04:01.820Z,3.92
2022-12-29T21:06:29.803Z,4.32
2022-12-29T21:08:57.573Z,4.18
2022-12-29T21:11:25.477Z,4.13
2022-12-29T21:13:53.247Z,4.32
2022-12-29T21:16:21.708Z,3.97
2022-12-29T21:18:50.036Z,4.93
2022-12-29T21:21:21.111Z,3.70
2022-12-29T21:23:49.650Z,3.75
2022-12-29T21:26:18.878Z,4.20
2022-12-29T21:28:47.173Z,3.78
2022-12-29T21:31:24.659Z,4.90
2022-12-29T21:33:52.618Z,3.95
2022-12-29T21:36:21.838Z,3.65
2022-12-29T21:38:49.719Z,4.07
2022-12-29T21:41:18.076Z,3.73
2022-12-29T21:44:07.775Z,4.05
2022-12-29T21:46:36.124Z,3.92
2022-12-29T21:49:04.562Z,4.22
2022-12-29T21:51:53.751Z,3.65
2022-12-29T21:54:41.619Z,4.78
2022-12-29T21:57:10.217Z,3.97
2022-12-29T22:00:10.453Z,4.20
2022-12-29T22:02:55.988Z,4.53
2022-12-29T22:05:41.348Z,4.95
2022-12-29T22:08:27.942Z,4.07
2022-12-29T22:11:13.513Z,3.50
2022-12-29T22:13:41.308Z,3.70
2022-12-29T22:16:11.169Z,3.95
2022-12-29T22:18:39.315Z,3.33
2022-12-29T22:21:08.031Z,3.88
2022-12-29T22:23:37.884Z,4.18
2022-12-29T22:26:06.413Z,3.83
2022-12-29T22:28:38.034Z,3.58
2022-12-29T22:31:06.084Z,4.13
2022-12-29T22:33:33.882Z,4.35
2022-12-29T22:36:01.693Z,4.50
2022-12-29T22:38:29.565Z,4.68
2022-12-29T22:41:01.459Z,4.00
2022-12-29T22:43:30.004Z,3.90
2022-12-29T22:46:03.186Z,3.45
2022-12-29T22:48:32.593Z,3.95
2022-12-29T22:51:00.388Z,3.33
2022-12-29T22:53:28.113Z,3.45
2022-12-29T22:56:04.388Z,4.00
2022-12-29T22:58:32.137Z,3.05
2022-12-29T23:00:59.891Z,4.30
2022-12-29T23:03:27.945Z,4.18
2022-12-29T23:05:59.813Z,4.75
2022-12-29T23:08:27.937Z,3.20
2022-12-29T23:10:55.642Z,3.25
2022-12-29T23:13:25.013Z,4.20
2022-12-29T23:15:52.898Z,3.65
2022-12-29T23:18:20.709Z,3.47
2022-12-29T23:20:49.492Z,3.33
2022-12-29T23:23:44.639Z,3.38
2022-12-29T23:26:16.071Z,4.07
2022-12-29T23:28:45.522Z,3.25
2022-12-29T23:31:13.718Z,4.90
2022-12-29T23:33:41.971Z,3.65
2022-12-29T23:36:10.453Z,4.22
2022-12-29T23:38:38.305Z,3.38
2022-12-29T23:41:06.248Z,3.90
2022-12-29T23:43:34.185Z,3.50
2022-12-29T23:46:08.665Z,4.05
2022-12-29T23:48:36.941Z,3.60
2022-12-29T23:51:06.806Z,3.70
2022-12-29T23:53:35.092Z,4.35
2022-12-29T23:56:02.895Z,3.40
2022-12-29T23:58:31.266Z,3.60
